Ana Sayfa
METAR-TAF:

METAR-TAF

Havaalanları :

Gatineau, Quebec, Kanada

Enlem: 45-31N, Boylam: 075-34W, yükseklik: 64 m

Güncel hava durumu gözlemi

Rapor saat 22:00 UTC de 16 dakika önce yapıldı.
Rüzgar kuzeybatıdan 4 kt
Sıcaklık -9°C
Nem 57%
Basınç 1036 hPa
Görüş mesafesi: 24.1 km
24000 ft yükseklikte az bulutlu

METAR: CYND 162200Z 31004KT 15SM FEW240 M09/M16 A3060 RMK CI1 CONTRAILS SLP368

Saat: 17:16 (22:16 UTC)

Tahmin

Rapor saat 17:38 UTC de 4 saat ve 38 dakika önce yapıldı.
Ayın 16'si saat 18 UTC'den ayın 17'si saat 02 UTC'ye kadar geçerli Tahmin
Rüzgar batı/güneybatıdan 5 kt
Görüş mesafesi: 10 km
Açık gökyüzü
Dönüşüyor
ayın 16'si saat 22 UTC'den ayın 16'si saat 24 UTC'ye kadar
Rüzgar kuzeydan 5 kt

TAF: CYND 161738Z 1618/1702 25005KT P6SM SKC BECMG 1622/1624 35005KT RMK NXT FCST BY 170000Z

4.000'den fazla havaalanı için hava durumu gözlemleri ve tahminleri (METAR ve TAF raporları).

Kullanılabilir istasyonlar harita üzerinde sarı ve kırmızı noktalarla gösterilir.

İstasyonun adını görmek için fareyi noktanın üzerinde gezdirin.

Sonrasında hava gözlem ve tahminlerini görmek için tıklayın.

Haritayı değiştirmek için: yaklaştırmak için siyah artı işaretli yeşil düğmeye ve uzaklaştırmak için de eksi işaretli düğmeye hızla tıklayın; bitişik haritalar için yeşil okları kullanın.


METAR-TAF: